Time;durP1;ratioP1;P1;durP2;ratioP2;P2;SDS_P1;SDS_P2;PMS_P1;PMS_P2;Temp;Humidity;BMP_temperature;BMP_pressure;BME280_temperature;BME280_humidity;BME280_pressure;Samples;Min_cycle;Max_cycle;Signal;HPM_P1;HPM_P2
2023/09/12 00:02:36;;;;;;;22.30;17.60;;;;;;;16.07;76.33;99905.58;130109;1263;97409;-74
2023/09/12 00:05:41;;;;;;;24.80;17.80;;;;;;;16.04;76.50;99898.10;130031;1264;97800;-74
2023/09/12 00:08:47;;;;;;;23.20;17.30;;;;;;;16.03;76.68;99899.55;130057;1262;96748;-75
2023/09/12 00:11:52;;;;;;;23.00;18.20;;;;;;;16.05;76.63;99897.63;130063;1264;96628;-74
2023/09/12 00:14:58;;;;;;;21.70;18.00;;;;;;;16.04;76.48;99898.39;130113;1261;96621;-75
2023/09/12 00:18:04;;;;;;;21.40;17.40;;;;;;;16.00;76.53;99895.59;130061;1264;97833;-75
2023/09/12 00:21:10;;;;;;;25.20;18.50;;;;;;;15.97;76.66;99897.81;129886;1264;96669;-74
2023/09/12 00:24:15;;;;;;;22.40;17.50;;;;;;;15.94;76.69;99895.55;130082;1263;97405;-74
2023/09/12 00:27:21;;;;;;;21.10;16.50;;;;;;;15.92;76.95;99899.59;130060;1263;97794;-74
2023/09/12 00:30:26;;;;;;;23.00;16.90;;;;;;;15.91;77.06;99901.79;130061;1260;96624;-75
2023/09/12 00:33:32;;;;;;;22.10;16.70;;;;;;;15.92;77.11;99895.41;130043;1264;97809;-74
2023/09/12 00:36:38;;;;;;;25.10;16.90;;;;;;;15.92;77.08;99898.29;130112;1261;96679;-74
2023/09/12 00:39:43;;;;;;;22.00;16.90;;;;;;;15.91;77.07;99896.48;130172;1260;96624;-75
2023/09/12 00:42:49;;;;;;;20.90;17.10;;;;;;;15.85;77.19;99893.30;130163;1261;96626;-76
2023/09/12 00:45:54;;;;;;;21.60;16.10;;;;;;;15.67;77.32;99895.01;130059;1263;96670;-74
2023/09/12 00:49:02;;;;;;;21.50;16.00;;;;;;;15.63;77.49;99896.38;130089;1265;97835;-74
2023/09/12 00:52:08;;;;;;;22.30;16.70;;;;;;;15.63;77.58;99893.48;130086;1266;97420;-74
2023/09/12 00:55:14;;;;;;;20.90;15.90;;;;;;;15.66;77.63;99889.65;130105;1260;96713;-74
2023/09/12 00:58:20;;;;;;;20.60;16.20;;;;;;;15.67;77.78;99889.91;130027;1264;97293;-74
2023/09/12 01:01:26;;;;;;;20.90;16.70;;;;;;;15.67;77.56;99885.48;130175;1264;96714;-74
2023/09/12 01:04:33;;;;;;;22.00;15.90;;;;;;;15.59;77.75;99884.52;130065;1265;97661;-75
2023/09/12 01:07:40;;;;;;;19.50;15.40;;;;;;;15.47;77.89;99882.40;130085;1264;96780;-74
2023/09/12 01:10:47;;;;;;;20.30;15.40;;;;;;;15.44;77.84;99882.83;130119;1261;97812;-76
2023/09/12 01:13:52;;;;;;;19.70;16.20;;;;;;;15.45;77.96;99882.21;130076;1260;96726;-74
2023/09/12 01:16:59;;;;;;;21.00;16.80;;;;;;;15.48;78.05;99889.27;130116;1264;97033;-75
2023/09/12 01:20:10;;;;;;;22.80;17.80;;;;;;;15.52;78.07;99887.56;130136;1267;97546;-74
2023/09/12 01:23:31;;;;;;;22.10;17.50;;;;;;;15.51;78.20;99887.42;130141;1264;97177;-74
2023/09/12 01:26:50;;;;;;;20.00;16.10;;;;;;;15.50;78.18;99885.98;130177;1265;96862;-74
2023/09/12 01:30:00;;;;;;;20.60;15.10;;;;;;;15.44;78.30;99887.48;130168;1264;97398;-74
2023/09/12 01:33:07;;;;;;;23.00;16.80;;;;;;;15.38;78.44;99888.64;130127;1261;96631;-74
2023/09/12 01:36:12;;;;;;;22.00;15.90;;;;;;;15.39;78.37;99888.61;130133;1263;96659;-74
2023/09/12 01:39:18;;;;;;;19.70;16.40;;;;;;;15.43;78.52;99890.59;130078;1260;96633;-75
2023/09/12 01:42:25;;;;;;;21.80;16.80;;;;;;;15.44;78.46;99890.86;130183;1264;96611;-78
2023/09/12 01:45:31;;;;;;;20.90;16.30;;;;;;;15.43;78.49;99890.83;130122;1263;97803;-74
2023/09/12 01:48:39;;;;;;;18.20;14.90;;;;;;;15.38;78.56;99893.07;130075;1264;97839;-75
2023/09/12 01:51:45;;;;;;;18.80;15.60;;;;;;;15.36;78.69;99896.19;130093;1263;97403;-75
2023/09/12 01:54:53;;;;;;;22.50;16.20;;;;;;;15.39;78.78;99888.45;130080;1266;96696;-74
2023/09/12 01:57:59;;;;;;;22.80;16.30;;;;;;;15.41;78.76;99889.13;130096;1263;96638;-75
2023/09/12 02:01:04;;;;;;;19.90;16.20;;;;;;;15.41;78.34;99888.99;130088;1261;97702;-75
2023/09/12 02:04:10;;;;;;;20.30;16.90;;;;;;;15.34;78.54;99889.10;130048;1264;96624;-75
2023/09/12 02:07:15;;;;;;;18.80;15.80;;;;;;;15.29;78.84;99891.49;130095;1264;97823;-74
2023/09/12 02:10:22;;;;;;;19.10;15.50;;;;;;;15.24;78.78;99892.85;130083;1264;96618;-74
2023/09/12 02:13:27;;;;;;;19.00;15.80;;;;;;;15.22;78.76;99891.61;130107;1260;97718;-74
2023/09/12 02:16:33;;;;;;;22.10;17.00;;;;;;;15.22;78.93;99886.27;130068;1261;96630;-74
2023/09/12 02:19:39;;;;;;;20.70;17.20;;;;;;;15.19;79.03;99888.30;130028;1263;96613;-74
2023/09/12 02:22:45;;;;;;;20.70;18.00;;;;;;;15.16;79.23;99887.83;130046;1261;96635;-75
2023/09/12 02:25:50;;;;;;;20.50;16.90;;;;;;;15.17;79.29;99885.02;130110;1264;97416;-75
2023/09/12 02:28:56;;;;;;;20.40;15.70;;;;;;;15.13;78.95;99883.86;130095;1264;96611;-74
2023/09/12 02:32:02;;;;;;;18.00;15.40;;;;;;;15.06;79.17;99882.92;130296;1264;97832;-76
2023/09/12 02:35:09;;;;;;;19.80;16.10;;;;;;;15.08;79.19;99883.77;130086;1260;97702;-76
2023/09/12 02:38:14;;;;;;;19.30;16.20;;;;;;;15.08;79.22;99882.46;130111;1264;97931;-75
2023/09/12 02:41:20;;;;;;;18.10;15.80;;;;;;;15.04;79.28;99882.61;130332;1260;96604;-73
2023/09/12 02:44:25;;;;;;;19.90;16.50;;;;;;;14.95;79.14;99879.96;130513;1260;96618;-73
2023/09/12 02:47:31;;;;;;;18.50;15.70;;;;;;;14.89;79.37;99883.33;130181;1263;97514;-74
2023/09/12 02:50:37;;;;;;;17.70;15.80;;;;;;;14.83;79.53;99881.95;130102;1263;97215;-73
2023/09/12 02:53:42;;;;;;;18.00;15.40;;;;;;;14.81;79.62;99879.55;130059;1263;96618;-72
2023/09/12 02:56:48;;;;;;;19.60;15.60;;;;;;;14.77;79.58;99880.93;130026;1262;96631;-73
2023/09/12 02:59:53;;;;;;;18.10;15.60;;;;;;;14.74;79.52;99882.95;130079;1260;97540;-73
2023/09/12 03:02:59;;;;;;;19.00;16.00;;;;;;;14.74;79.78;99884.33;130053;1264;97428;-73
2023/09/12 03:06:05;;;;;;;18.90;15.90;;;;;;;14.79;79.77;99884.59;130042;1260;96703;-73
2023/09/12 03:09:11;;;;;;;18.20;15.10;;;;;;;14.79;79.78;99880.95;130093;1265;96654;-74
2023/09/12 03:12:16;;;;;;;19.10;14.60;;;;;;;14.77;79.45;99880.64;130052;1264;97887;-72
2023/09/12 03:15:22;;;;;;;17.20;15.30;;;;;;;14.76;79.83;99879.60;129918;1262;96641;-73
2023/09/12 03:18:27;;;;;;;18.30;15.30;;;;;;;14.79;79.90;99882.11;130153;1261;96654;-72
2023/09/12 03:21:34;;;;;;;17.80;15.20;;;;;;;14.81;79.92;99883.86;130108;1263;96641;-73
2023/09/12 03:24:40;;;;;;;17.50;15.20;;;;;;;14.79;79.81;99880.20;130101;1260;97287;-73
2023/09/12 03:27:45;;;;;;;16.30;14.50;;;;;;;14.79;79.89;99881.91;130160;1263;97680;-73
2023/09/12 03:30:51;;;;;;;19.00;14.80;;;;;;;14.70;79.50;99883.91;130067;1261;97437;-72
2023/09/12 03:33:56;;;;;;;17.70;13.60;;;;;;;14.66;80.01;99885.52;130102;1264;97797;-73
2023/09/12 03:37:03;;;;;;;17.40;14.60;;;;;;;14.67;80.03;99883.42;130058;1261;96640;-72
2023/09/12 03:40:12;;;;;;;17.30;15.00;;;;;;;14.70;80.01;99887.17;130107;1264;96714;-73
2023/09/12 03:43:17;;;;;;;18.20;15.10;;;;;;;14.74;80.16;99883.08;130133;1260;96707;-73
2023/09/12 03:46:23;;;;;;;19.20;15.50;;;;;;;14.76;80.18;99888.48;130191;1260;97277;-73
2023/09/12 03:49:29;;;;;;;15.90;14.00;;;;;;;14.75;80.24;99886.43;130117;1263;96625;-73
2023/09/12 03:52:35;;;;;;;15.50;13.60;;;;;;;14.73;80.22;99888.02;130075;1263;96694;-73
2023/09/12 03:55:40;;;;;;;17.00;14.70;;;;;;;14.75;80.32;99889.66;130142;1264;96692;-73
2023/09/12 03:58:46;;;;;;;16.60;14.20;;;;;;;14.77;80.38;99890.89;130071;1264;96619;-74
2023/09/12 04:01:52;;;;;;;16.50;14.70;;;;;;;14.80;80.36;99893.35;130165;1260;97546;-73
2023/09/12 04:04:59;;;;;;;18.10;15.60;;;;;;;14.77;80.43;99897.59;130160;1260;96688;-73
2023/09/12 04:08:05;;;;;;;17.40;14.00;;;;;;;14.76;80.69;99897.74;130155;1267;97443;-73
2023/09/12 04:11:11;;;;;;;18.70;14.50;;;;;;;14.76;80.70;99894.86;130077;1265;97307;-72
2023/09/12 04:14:17;;;;;;;16.90;14.90;;;;;;;14.78;80.79;99893.75;130069;1264;97964;-73
2023/09/12 04:17:23;;;;;;;18.10;14.80;;;;;;;14.81;80.85;99891.55;130106;1262;96727;-75
2023/09/12 04:20:29;;;;;;;18.50;15.10;;;;;;;14.85;80.82;99889.70;130047;1264;96647;-73
2023/09/12 04:23:34;;;;;;;18.80;14.10;;;;;;;14.88;80.92;99892.16;130176;1260;97303;-73
2023/09/12 04:26:41;;;;;;;16.90;15.10;;;;;;;14.89;80.75;99892.01;130065;1262;96639;-73
2023/09/12 04:29:47;;;;;;;17.10;14.60;;;;;;;14.90;80.78;99893.09;130066;1262;96674;-74
2023/09/12 04:32:53;;;;;;;16.90;13.60;;;;;;;14.98;81.27;99889.97;130106;1264;97447;-72
2023/09/12 04:36:01;;;;;;;14.70;12.90;;;;;;;15.09;80.87;99895.73;130045;1264;96684;-73
2023/09/12 04:39:08;;;;;;;18.20;14.40;;;;;;;15.15;80.80;99889.02;130050;1261;97440;-73
2023/09/12 04:42:14;;;;;;;16.80;14.00;;;;;;;15.21;80.83;99891.30;130062;1262;96718;-74
2023/09/12 04:45:19;;;;;;;18.60;14.50;;;;;;;15.28;81.10;99886.27;130078;1261;96759;-73
2023/09/12 04:48:28;;;;;;;16.60;14.20;;;;;;;15.38;81.31;99887.73;130136;1264;97806;-73
2023/09/12 04:51:33;;;;;;;18.70;15.00;;;;;;;15.54;81.42;99891.80;130089;1264;97104;-74
2023/09/12 04:54:39;;;;;;;20.20;15.30;;;;;;;15.72;81.67;99889.30;130323;1263;96726;-74
2023/09/12 04:57:44;;;;;;;16.80;14.50;;;;;;;15.95;81.58;99891.76;130211;1261;96637;-75
2023/09/12 05:00:50;;;;;;;18.40;14.40;;;;;;;16.17;81.36;99892.88;130091;1262;97807;-75
2023/09/12 05:03:56;;;;;;;17.70;15.80;;;;;;;16.33;81.07;99895.69;130189;1263;97669;-75
2023/09/12 05:07:03;;;;;;;16.40;13.60;;;;;;;16.48;81.56;99898.34;130216;1264;97415;-75
2023/09/12 05:10:10;;;;;;;17.30;13.40;;;;;;;16.71;81.17;99900.05;130115;1259;97325;-75
2023/09/12 05:13:17;;;;;;;15.40;13.30;;;;;;;16.84;81.16;99900.33;130123;1264;97814;-74
2023/09/12 05:16:23;;;;;;;16.80;13.10;;;;;;;17.00;81.09;99901.33;130106;1262;97705;-75
2023/09/12 05:19:30;;;;;;;16.20;13.60;;;;;;;17.11;81.09;99899.98;130186;1262;96675;-74
2023/09/12 05:22:36;;;;;;;13.50;12.10;;;;;;;17.23;80.98;99902.95;130050;1263;97434;-75
2023/09/12 05:25:41;;;;;;;14.60;12.40;;;;;;;17.32;81.10;99904.53;130096;1261;97298;-75
2023/09/12 05:28:48;;;;;;;15.20;12.70;;;;;;;17.39;81.19;99907.60;130016;1266;97854;-75
2023/09/12 05:31:55;;;;;;;13.50;12.00;;;;;;;17.49;81.31;99912.05;130118;1264;97836;-75
2023/09/12 05:35:00;;;;;;;14.40;12.50;;;;;;;17.63;81.80;99911.27;130181;1261;96688;-75
2023/09/12 05:38:06;;;;;;;15.50;13.80;;;;;;;17.79;81.71;99912.27;130071;1263;96627;-75
2023/09/12 05:41:11;;;;;;;17.60;15.70;;;;;;;17.93;81.65;99911.73;130100;1264;97804;-74
2023/09/12 05:44:18;;;;;;;16.50;14.60;;;;;;;18.04;81.73;99907.81;130095;1262;96796;-75
2023/09/12 05:47:25;;;;;;;17.60;16.00;;;;;;;18.12;81.76;99911.29;130128;1263;97548;-74
2023/09/12 05:50:30;;;;;;;18.50;15.80;;;;;;;18.19;81.95;99909.69;130104;1262;96617;-74
2023/09/12 05:53:36;;;;;;;16.20;13.70;;;;;;;18.28;82.16;99910.13;130091;1267;97816;-74
2023/09/12 05:56:42;;;;;;;16.80;14.50;;;;;;;18.41;82.27;99911.54;130068;1262;97274;-73
2023/09/12 05:59:48;;;;;;;15.50;13.90;;;;;;;18.57;82.45;99911.52;130149;1263;96662;-75
2023/09/12 06:02:54;;;;;;;16.30;14.30;;;;;;;18.72;82.61;99912.38;130139;1261;96645;-77
2023/09/12 06:06:00;;;;;;;17.10;15.40;;;;;;;18.85;82.71;99913.42;130208;1264;96694;-75
2023/09/12 06:09:05;;;;;;;24.00;16.80;;;;;;;18.98;82.91;99913.45;130033;1263;97832;-76
2023/09/12 06:12:11;;;;;;;15.40;13.40;;;;;;;19.11;83.20;99913.63;130090;1264;97740;-76
2023/09/12 06:15:16;;;;;;;17.90;15.10;;;;;;;19.23;82.98;99911.79;130085;1262;97689;-76
2023/09/12 06:18:23;;;;;;;17.50;15.70;;;;;;;19.38;82.94;99912.11;130119;1263;97810;-76
2023/09/12 06:21:29;;;;;;;18.30;16.50;;;;;;;19.51;82.98;99914.92;130085;1264;97780;-76
2023/09/12 06:24:35;;;;;;;20.30;17.00;;;;;;;19.62;82.77;99914.41;130108;1264;97786;-76
2023/09/12 06:27:40;;;;;;;13.20;11.90;;;;;;;19.72;82.76;99917.31;130134;1264;97411;-76
2023/09/12 06:30:46;;;;;;;13.30;11.90;;;;;;;19.93;82.01;99922.63;130338;1262;97780;-76
2023/09/12 06:33:52;;;;;;;14.80;13.10;;;;;;;20.14;81.67;99916.42;130138;1264;96639;-78
2023/09/12 06:36:57;;;;;;;14.10;12.30;;;;;;;20.30;81.60;99921.56;130101;1264;96609;-76
2023/09/12 06:40:06;;;;;;;21.90;17.50;;;;;;;20.41;81.42;99921.43;130345;1264;96704;-76
2023/09/12 06:43:12;;;;;;;14.60;13.00;;;;;;;20.49;81.56;99924.75;130392;1261;96624;-76
2023/09/12 06:46:18;;;;;;;14.60;13.10;;;;;;;20.57;81.18;99929.19;130162;1264;96615;-75
2023/09/12 07:15:13;;;;;;;21.20;19.10;;;;;;;21.38;79.82;99934.80;128189;1282;649073;-77
2023/09/12 07:18:20;;;;;;;21.80;19.40;;;;;;;21.61;80.49;99938.80;130086;1260;192488;-76
2023/09/12 07:21:26;;;;;;;21.10;18.90;;;;;;;21.70;80.72;99939.11;130179;1263;106504;-76
2023/09/12 07:24:31;;;;;;;22.20;19.00;;;;;;;21.77;80.32;99939.50;130156;1276;107781;-76
2023/09/12 07:27:37;;;;;;;20.00;17.90;;;;;;;21.83;80.26;99935.14;130181;1276;108751;-77
2023/09/12 07:30:43;;;;;;;22.10;19.70;;;;;;;21.90;79.93;99936.20;130200;1266;108444;-76
2023/09/12 07:33:48;;;;;;;22.60;19.80;;;;;;;21.96;80.04;99939.76;130206;1277;106841;-76
2023/09/12 07:36:54;;;;;;;21.60;19.30;;;;;;;22.02;79.95;99937.70;130279;1264;107293;-76
2023/09/12 07:40:00;;;;;;;22.40;18.70;;;;;;;22.05;79.84;99937.45;130186;1263;108663;-76
2023/09/12 07:43:07;;;;;;;19.30;17.30;;;;;;;22.11;79.67;99938.95;130143;1263;107398;-77
2023/09/12 07:46:13;;;;;;;18.30;16.40;;;;;;;22.18;79.52;99933.13;130207;1266;107966;-77
2023/09/12 07:49:19;;;;;;;19.60;17.70;;;;;;;22.27;79.21;99932.70;130142;1265;108072;-76
2023/09/12 07:52:25;;;;;;;18.10;16.30;;;;;;;22.37;78.90;99934.13;130141;1273;107761;-75
2023/09/12 07:55:35;;;;;;;19.90;17.80;;;;;;;22.43;78.49;99932.45;130258;1266;107485;-75
2023/09/12 07:58:41;;;;;;;19.70;17.10;;;;;;;22.46;78.08;99929.63;130092;1266;106844;-77
2023/09/12 08:01:47;;;;;;;19.50;17.00;;;;;;;22.51;77.78;99932.46;130163;1264;106533;-76
2023/09/12 08:04:53;;;;;;;19.30;17.30;;;;;;;22.59;77.76;99932.63;130219;1266;107808;-76
2023/09/12 08:08:00;;;;;;;18.30;16.40;;;;;;;22.62;77.39;99929.21;130180;1264;108497;-75
2023/09/12 08:11:06;;;;;;;18.20;16.00;;;;;;;22.65;77.50;99925.30;130269;1260;108604;-75
2023/09/12 08:14:11;;;;;;;16.50;14.90;;;;;;;22.71;77.22;99928.75;130188;1270;107911;-75
2023/09/12 08:17:17;;;;;;;16.20;14.60;;;;;;;22.79;77.08;99930.68;130301;1264;106721;-76
2023/09/12 08:20:23;;;;;;;16.70;15.00;;;;;;;22.88;76.94;99925.92;130188;1264;107565;-75
2023/09/12 08:23:29;;;;;;;16.20;14.60;;;;;;;22.99;76.17;99927.33;130218;1266;107638;-76
2023/09/12 08:26:35;;;;;;;16.50;14.80;;;;;;;23.11;76.20;99925.63;130161;1259;108084;-77
2023/09/12 08:29:41;;;;;;;16.50;14.80;;;;;;;23.19;75.68;99926.73;130155;1266;106825;-77
2023/09/12 08:32:47;;;;;;;15.20;13.70;;;;;;;23.31;74.91;99922.55;130186;1261;107729;-77
2023/09/12 08:35:52;;;;;;;14.80;13.40;;;;;;;23.38;75.03;99923.86;130177;1264;106663;-76
2023/09/12 08:39:00;;;;;;;14.60;13.10;;;;;;;23.44;72.82;99923.98;130230;1266;108483;-75
2023/09/12 08:42:08;;;;;;;14.50;13.10;;;;;;;23.57;73.85;99923.04;130179;1264;107131;-77
2023/09/12 08:45:16;;;;;;;15.60;13.60;;;;;;;23.59;73.84;99927.33;130188;1264;107679;-77
2023/09/12 08:48:23;;;;;;;14.90;13.40;;;;;;;23.58;73.53;99931.23;130280;1264;107684;-76
2023/09/12 08:51:29;;;;;;;15.30;13.80;;;;;;;23.60;72.71;99930.88;130324;1260;106581;-76
2023/09/12 08:54:35;;;;;;;15.50;14.00;;;;;;;23.65;72.12;99929.59;130225;1276;108190;-76
2023/09/12 08:57:43;;;;;;;16.30;14.10;;;;;;;23.70;72.69;99929.16;130277;1264;108096;-76
2023/09/12 09:00:50;;;;;;;15.20;13.70;;;;;;;23.86;72.16;99928.11;130235;1264;108441;-77
2023/09/12 09:03:55;;;;;;;15.10;13.60;;;;;;;23.95;72.22;99927.27;130242;1277;108368;-76
2023/09/12 09:07:02;;;;;;;14.60;12.80;;;;;;;24.00;71.85;99927.23;130204;1263;106651;-76
2023/09/12 09:10:10;;;;;;;14.90;13.30;;;;;;;24.07;70.42;99927.67;130204;1267;108539;-76
2023/09/12 09:13:16;;;;;;;14.90;13.50;;;;;;;24.20;70.24;99925.84;130218;1264;107645;-76
2023/09/12 09:16:23;;;;;;;14.40;12.60;;;;;;;24.28;70.32;99925.89;130155;1266;107709;-76
2023/09/12 09:19:42;;;;;;;15.00;13.60;;;;;;;24.29;70.07;99928.36;130138;1264;107009;-76
2023/09/12 09:23:00;;;;;;;13.70;12.30;;;;;;;24.35;70.45;99917.86;130214;1261;107147;-76
2023/09/12 09:26:06;;;;;;;14.60;13.10;;;;;;;24.37;70.23;99922.57;130180;1263;108642;-76
2023/09/12 09:29:14;;;;;;;12.80;11.50;;;;;;;24.43;70.09;99917.46;130186;1263;107021;-76
2023/09/12 09:32:22;;;;;;;13.00;11.70;;;;;;;24.45;69.87;99916.35;130159;1261;108420;-77
2023/09/12 09:35:28;;;;;;;13.30;11.20;;;;;;;24.46;69.12;99917.71;130192;1260;107873;-76
2023/09/12 09:38:35;;;;;;;12.50;11.30;;;;;;;24.48;66.22;99911.98;130174;1265;107682;-77
2023/09/12 09:41:41;;;;;;;11.80;10.20;;;;;;;24.60;65.92;99909.41;130242;1260;106528;-77
2023/09/12 09:44:47;;;;;;;12.70;11.40;;;;;;;24.70;67.05;99909.98;130332;1265;106345;-79
2023/09/12 09:47:58;;;;;;;13.30;12.00;;;;;;;24.70;66.17;99908.29;130401;1263;105696;-79
2023/09/12 09:51:05;;;;;;;12.90;10.80;;;;;;;24.73;66.69;99904.94;130508;1266;107642;-77
2023/09/12 09:54:11;;;;;;;12.00;10.90;;;;;;;24.76;65.15;99902.61;130274;1274;107081;-78
2023/09/12 09:57:17;;;;;;;12.00;10.90;;;;;;;24.80;65.16;99897.96;130339;1261;106762;-79
2023/09/12 10:00:26;;;;;;;11.60;10.50;;;;;;;24.87;63.93;99898.16;130317;1260;108180;-77
2023/09/12 10:03:37;;;;;;;11.10;10.00;;;;;;;25.02;63.03;99895.15;130194;1265;107584;-77
2023/09/12 10:06:56;;;;;;;11.20;10.10;;;;;;;25.21;61.46;99896.48;130561;1261;108728;-78
2023/09/12 10:10:13;;;;;;;11.10;10.10;;;;;;;25.42;62.55;99894.58;130369;1261;107867;-78
2023/09/12 10:13:20;;;;;;;10.20;9.10;;;;;;;25.32;62.28;99895.52;130529;1260;108054;-78
2023/09/12 10:17:19;;;;;;;10.10;9.10;;;;;;;25.28;61.56;99899.85;130438;1272;107509;-77
2023/09/12 10:20:33;;;;;;;10.30;9.30;;;;;;;25.27;62.09;99893.95;129925;1267;105891;-78
2023/09/12 10:23:42;;;;;;;10.00;9.10;;;;;;;25.32;61.59;99892.96;130007;1278;107100;-78
2023/09/12 10:26:49;;;;;;;10.90;8.90;;;;;;;25.41;59.02;99890.34;129911;1270;107714;-77
2023/09/12 10:29:56;;;;;;;9.70;8.70;;;;;;;25.52;59.07;99890.55;129833;1270;107632;-77
2023/09/12 10:33:04;;;;;;;10.10;9.00;;;;;;;25.69;58.85;99884.51;130036;1264;108496;-77
2023/09/12 10:36:12;;;;;;;10.00;8.70;;;;;;;25.85;55.58;99884.17;129859;1277;108116;-78
2023/09/12 10:39:20;;;;;;;10.30;9.30;;;;;;;26.06;58.66;99884.11;130223;1264;106881;-77
2023/09/12 10:42:26;;;;;;;9.90;8.60;;;;;;;25.95;58.83;99884.54;130326;1266;107854;-77
2023/09/12 10:45:33;;;;;;;9.50;8.60;;;;;;;25.91;56.52;99885.44;130549;1263;106659;-77
2023/09/12 10:48:40;;;;;;;9.60;8.60;;;;;;;26.00;57.22;99883.59;130564;1257;106783;-77
2023/09/12 10:51:48;;;;;;;9.80;8.90;;;;;;;25.95;57.11;99882.56;130585;1258;106772;-77
2023/09/12 10:54:53;;;;;;;9.90;8.80;;;;;;;25.88;57.67;99879.78;130577;1260;108126;-78
2023/09/12 10:58:06;;;;;;;9.60;8.70;;;;;;;25.90;57.63;99879.30;130578;1261;107677;-77
2023/09/12 11:01:27;;;;;;;9.90;9.00;;;;;;;25.94;57.82;99880.55;130552;1262;107869;-77
2023/09/12 11:04:37;;;;;;;11.10;9.10;;;;;;;26.04;56.14;99881.81;130525;1258;107562;-77
2023/09/12 11:07:50;;;;;;;9.40;8.50;;;;;;;26.24;54.70;99877.80;130569;1257;107743;-78
2023/09/12 11:11:20;;;;;;;9.90;8.90;;;;;;;26.34;55.61;99875.11;130490;1273;106546;-77
2023/09/12 11:14:26;;;;;;;10.80;9.00;;;;;;;26.42;54.66;99878.44;130589;1257;108553;-77
2023/09/12 11:17:37;;;;;;;10.30;9.30;;;;;;;26.45;55.95;99878.02;130481;1257;108622;-78
2023/09/12 11:21:03;;;;;;;9.70;8.70;;;;;;;26.49;55.13;99877.91;130610;1258;108483;-77
2023/09/12 11:24:09;;;;;;;9.90;9.00;;;;;;;26.57;54.17;99875.81;130518;1260;107853;-77
2023/09/12 11:27:15;;;;;;;10.60;9.60;;;;;;;26.58;55.08;99875.10;130436;1261;107695;-76
2023/09/12 11:30:21;;;;;;;9.90;8.90;;;;;;;26.56;55.46;99875.04;130518;1257;107172;-77
2023/09/12 11:33:28;;;;;;;10.50;9.50;;;;;;;26.52;55.26;99876.95;130579;1273;108694;-76
2023/09/12 11:36:41;;;;;;;10.60;9.40;;;;;;;26.44;54.98;99877.17;130928;1260;107779;-79
2023/09/12 11:39:47;;;;;;;10.50;9.40;;;;;;;26.45;55.28;99877.61;130469;1258;107125;-76
2023/09/12 11:42:53;;;;;;;10.10;9.10;;;;;;;26.49;54.16;99876.77;130551;1260;107592;-76
2023/09/12 11:46:00;;;;;;;10.50;9.50;;;;;;;26.55;54.54;99870.33;130536;1257;106982;-77
2023/09/12 11:49:05;;;;;;;11.00;9.90;;;;;;;26.47;54.62;99875.50;130529;1257;107925;-76
2023/09/12 11:52:13;;;;;;;12.60;10.30;;;;;;;26.33;54.69;99872.48;130581;1261;106782;-76
2023/09/12 11:55:26;;;;;;;10.30;9.30;;;;;;;26.16;54.92;99880.13;130529;1260;106370;-76
2023/09/12 11:58:31;;;;;;;11.20;10.00;;;;;;;26.11;54.54;99881.23;130539;1269;108805;-77
2023/09/12 12:01:37;;;;;;;12.10;10.40;;;;;;;26.09;54.60;99882.27;130535;1258;108193;-77
2023/09/12 12:04:43;;;;;;;10.80;9.80;;;;;;;26.17;54.34;99879.20;130508;1257;108220;-77
2023/09/12 12:11:51;;;;;;;11.00;9.90;;;;;;;26.22;53.90;99883.11;130868;1264;109021;-79
2023/09/12 12:14:56;;;;;;;10.50;9.40;;;;;;;26.20;53.95;99876.97;130591;1257;107356;-76
2023/09/12 12:18:02;;;;;;;11.00;9.90;;;;;;;26.19;53.44;99876.64;130498;1261;108075;-76
2023/09/12 12:21:08;;;;;;;10.80;9.80;;;;;;;26.25;53.74;99873.98;130533;1258;107389;-77
2023/09/12 12:24:15;;;;;;;13.20;10.70;;;;;;;26.17;53.66;99873.07;130531;1260;108613;-77
2023/09/12 12:27:21;;;;;;;12.10;10.40;;;;;;;26.18;52.11;99864.11;130552;1260;107565;-76
2023/09/12 12:30:27;;;;;;;12.00;10.50;;;;;;;26.27;52.06;99863.00;130537;1260;108175;-77
2023/09/12 12:33:33;;;;;;;11.50;10.40;;;;;;;26.29;52.70;99864.76;130579;1260;107067;-77
2023/09/12 12:36:44;;;;;;;11.30;10.20;;;;;;;26.27;52.82;99866.34;130696;1257;107259;-78
2023/09/12 12:39:50;;;;;;;10.60;9.60;;;;;;;26.20;52.96;99860.89;130638;1260;107664;-77
2023/09/12 12:42:55;;;;;;;10.90;9.80;;;;;;;26.20;52.66;99858.15;130667;1257;107319;-77
2023/09/12 12:46:01;;;;;;;12.20;10.20;;;;;;;26.27;52.74;99854.24;130629;1260;108566;-77
2023/09/12 12:49:07;;;;;;;11.30;9.80;;;;;;;26.26;52.77;99852.70;130676;1259;107505;-77
2023/09/12 12:52:13;;;;;;;11.50;10.20;;;;;;;26.27;52.27;99849.11;130632;1256;107423;-77
2023/09/12 12:55:21;;;;;;;11.60;10.40;;;;;;;26.33;51.80;99845.73;130603;1260;108133;-77
2023/09/12 12:58:27;;;;;;;11.30;9.70;;;;;;;26.49;50.32;99847.32;130474;1261;106836;-76
2023/09/12 13:01:34;;;;;;;11.30;10.10;;;;;;;26.64;51.02;99845.38;130662;1261;105857;-77
2023/09/12 13:04:40;;;;;;;11.40;9.90;;;;;;;26.71;50.60;99843.98;130550;1257;107483;-77
2023/09/12 13:07:46;;;;;;;10.50;9.50;;;;;;;26.80;48.98;99843.06;130613;1258;107813;-76
2023/09/12 13:10:51;;;;;;;10.70;9.10;;;;;;;26.97;50.09;99843.14;130560;1257;106675;-76
2023/09/12 13:13:57;;;;;;;10.40;9.40;;;;;;;27.06;50.01;99844.68;130667;1260;108483;-77
2023/09/12 13:17:04;;;;;;;11.00;9.80;;;;;;;27.08;49.35;99845.50;130631;1258;108422;-77
2023/09/12 13:20:11;;;;;;;10.50;9.50;;;;;;;27.10;49.51;99844.73;130865;1255;106344;-79
2023/09/12 13:23:17;;;;;;;10.70;9.60;;;;;;;27.10;49.45;99840.95;130956;1258;107741;-78
2023/09/12 13:26:22;;;;;;;11.40;10.10;;;;;;;27.16;47.11;99838.95;130922;1257;108158;-78
2023/09/12 13:29:28;;;;;;;10.40;9.20;;;;;;;27.27;48.53;99834.14;131099;1260;107796;-76
2023/09/12 13:32:34;;;;;;;10.60;9.60;;;;;;;27.30;49.03;99833.00;130970;1254;107959;-79
2023/09/12 13:35:40;;;;;;;10.70;9.50;;;;;;;27.34;48.81;99830.36;131126;1253;106741;-77
2023/09/12 13:38:48;;;;;;;9.90;8.90;;;;;;;27.35;48.82;99832.93;131328;1254;106204;-77
2023/09/12 13:41:57;;;;;;;10.20;9.30;;;;;;;27.33;48.71;99830.03;131525;1251;107706;-77
2023/09/12 13:45:07;;;;;;;10.30;9.30;;;;;;;27.26;49.28;99830.19;131524;1250;107631;-78
2023/09/12 13:48:14;;;;;;;10.00;9.00;;;;;;;27.11;49.07;99835.48;131216;1265;108733;-77
2023/09/12 13:51:20;;;;;;;11.30;9.60;;;;;;;27.13;48.61;99838.83;131196;1253;108249;-77
2023/09/12 13:54:26;;;;;;;10.40;9.40;;;;;;;27.18;48.76;99838.88;131288;1264;108720;-77
2023/09/12 13:57:32;;;;;;;10.30;9.30;;;;;;;27.16;49.15;99847.44;132594;1253;106982;-80
2023/09/12 14:00:55;;;;;;;10.80;9.80;;;;;;;27.07;49.23;99846.48;132417;1248;107515;-79
2023/09/12 14:04:02;;;;;;;10.60;9.50;;;;;;;26.98;49.14;99846.16;131945;1248;107374;-77
2023/09/12 14:07:08;;;;;;;10.50;9.50;;;;;;;26.96;48.62;99847.08;131742;1253;106873;-78
2023/09/12 14:10:13;;;;;;;9.90;8.90;;;;;;;26.97;48.80;99844.40;131241;1253;108089;-79
2023/09/12 14:13:19;;;;;;;11.10;9.90;;;;;;;26.93;48.68;99847.19;131245;1248;106713;-78
2023/09/12 14:16:24;;;;;;;10.30;9.20;;;;;;;26.91;48.59;99847.64;131259;1248;107751;-78
2023/09/12 14:19:31;;;;;;;10.00;9.00;;;;;;;26.89;48.70;99846.86;131248;1248;107871;-78
2023/09/12 14:22:37;;;;;;;10.10;9.10;;;;;;;26.80;48.42;99842.95;131075;1254;106825;-78
2023/09/12 14:25:42;;;;;;;9.70;8.70;;;;;;;26.70;48.54;99843.52;131197;1253;108637;-80
2023/09/12 14:28:48;;;;;;;11.30;8.90;;;;;;;26.63;48.35;99844.11;131297;1248;108438;-76
2023/09/12 14:31:57;;;;;;;10.00;9.10;;;;;;;26.61;47.66;99846.69;131158;1254;108733;-80
2023/09/12 14:35:03;;;;;;;10.60;9.60;;;;;;;26.67;47.38;99846.98;131310;1248;108716;-79
2023/09/12 14:38:09;;;;;;;10.80;9.80;;;;;;;26.69;47.60;99845.39;131446;1253;107571;-82